Horsford, United Kingdom
Current Conditions -  °F | °C
As of 9:50 AM on Monday 22 Dec 2014 (Local Time) from EGSH Reporting Station
Scattered Clouds Scattered Clouds  
Wind Chill: 55°   Ceiling: Unl
Heat Index: 55°   Visibility: 6mi
Dew Point: 48°   Wind: 28mph
Humidity: 77%   Direction: 240°WSW
Pressure: 29.88"   Gusts: 39mph
Location:  52.7°N, 1.24°E
Report Text: EGSH 220950Z 24024G34KT 9999 SCT024 13/09 Q1012 NOSIG
Loading
Personal Weather Stations






























Interactive Weather Map New forecast layout! Learn more

10-Day Weather Forecast

Advertisements
Track Severe Weather on mobile